Time;durP1;ratioP1;P1;durP2;ratioP2;P2;SDS_P1;SDS_P2;PMS_P1;PMS_P2;Temp;Humidity;BMP_temperature;BMP_pressure;BME280_temperature;BME280_humidity;BME280_pressure;Samples;Min_cycle;Max_cycle;Signal;HPM_P1;HPM_P2
2022/02/28 00:00:01;;;;;;;2.87;2.67;;;2.40;93.50;;;;;;5013061;28;20199;-65
2022/02/28 00:02:28;;;;;;;4.00;3.30;;;2.30;93.60;;;;;;5013012;28;20495;-65
2022/02/28 00:04:53;;;;;;;2.65;2.45;;;2.30;93.80;;;;;;5012731;28;20445;-64
2022/02/28 00:07:20;;;;;;;6.80;3.73;;;2.30;94.00;;;;;;5013031;28;20171;-64
2022/02/28 00:09:45;;;;;;;4.65;2.90;;;2.20;94.00;;;;;;5016523;28;20178;-65
2022/02/28 00:12:11;;;;;;;2.40;2.30;;;2.10;94.20;;;;;;5015361;28;20701;-64
2022/02/28 00:14:37;;;;;;;3.80;2.43;;;2.10;94.30;;;;;;5016058;28;20210;-66
2022/02/28 00:17:03;;;;;;;2.67;2.50;;;2.00;94.50;;;;;;5016403;28;20564;-65
2022/02/28 00:19:28;;;;;;;4.18;3.80;;;1.90;94.50;;;;;;5015024;28;20413;-65
2022/02/28 00:21:54;;;;;;;3.50;3.30;;;1.80;94.80;;;;;;5016201;28;20177;-64
2022/02/28 00:24:20;;;;;;;3.10;2.47;;;1.70;95.00;;;;;;5015940;28;20187;-64
2022/02/28 00:26:45;;;;;;;3.77;3.47;;;1.70;95.30;;;;;;5016362;28;20205;-65
2022/02/28 00:29:11;;;;;;;2.93;2.73;;;1.60;95.30;;;;;;5016136;28;20175;-64
2022/02/28 00:31:37;;;;;;;3.30;2.97;;;1.50;95.50;;;;;;5016224;28;20668;-66
2022/02/28 00:34:03;;;;;;;3.17;2.97;;;1.50;95.70;;;;;;5015720;28;20175;-66
2022/02/28 00:36:28;;;;;;;3.67;3.30;;;1.40;95.70;;;;;;5016190;28;20174;-67
2022/02/28 00:38:54;;;;;;;2.60;2.40;;;1.40;95.80;;;;;;5014859;28;20458;-64
2022/02/28 00:41:20;;;;;;;2.83;2.60;;;1.40;96.00;;;;;;5015965;28;20497;-64
2022/02/28 00:43:46;;;;;;;6.10;2.13;;;1.40;96.00;;;;;;5015923;28;20633;-66
2022/02/28 00:46:11;;;;;;;3.43;2.40;;;1.40;96.10;;;;;;5015854;28;20190;-65
2022/02/28 00:48:37;;;;;;;5.73;2.70;;;1.40;96.20;;;;;;5015905;28;20167;-66
2022/02/28 00:51:03;;;;;;;2.93;2.63;;;1.30;96.20;;;;;;5015876;28;20280;-65
2022/02/28 00:53:29;;;;;;;2.23;2.03;;;1.30;96.20;;;;;;5015656;28;20174;-65
2022/02/28 00:55:54;;;;;;;2.57;2.00;;;1.30;96.20;;;;;;5014330;28;20445;-65
2022/02/28 00:58:21;;;;;;;5.10;3.47;;;1.20;96.10;;;;;;5015670;28;20799;-65
2022/02/28 01:00:47;;;;;;;2.60;2.47;;;1.20;96.00;;;;;;5015762;28;20173;-66
2022/02/28 01:03:13;;;;;;;3.67;3.37;;;1.10;95.90;;;;;;5015621;28;20246;-65
2022/02/28 01:05:38;;;;;;;1.60;1.50;;;1.00;95.80;;;;;;5014009;28;20497;-66
2022/02/28 01:08:04;;;;;;;6.40;2.77;;;0.90;95.90;;;;;;5015523;28;20174;-66
2022/02/28 01:10:30;;;;;;;3.30;3.00;;;0.80;96.20;;;;;;5015577;28;20407;-66
2022/02/28 01:12:56;;;;;;;12.65;2.92;;;0.80;96.60;;;;;;5015311;28;20178;-66
2022/02/28 01:15:22;;;;;;;5.70;2.67;;;0.80;97.00;;;;;;5015118;28;20191;-65
2022/02/28 01:17:50;;;;;;;4.40;3.50;;;0.70;97.30;;;;;;5015263;28;20194;-66
2022/02/28 01:20:16;;;;;;;2.55;2.35;;;0.70;97.30;;;;;;5014264;28;20681;-65
2022/02/28 01:22:41;;;;;;;2.83;2.63;;;0.70;97.20;;;;;;5015444;28;20249;-68
2022/02/28 01:25:08;;;;;;;2.90;2.80;;;0.60;97.50;;;;;;5013553;28;20445;-65
2022/02/28 01:27:34;;;;;;;2.50;2.40;;;0.50;97.60;;;;;;5015438;28;20223;-65
2022/02/28 01:30:00;;;;;;;4.53;3.87;;;0.50;97.50;;;;;;5015136;28;20194;-66
2022/02/28 01:32:26;;;;;;;3.77;3.47;;;0.40;98.00;;;;;;5015300;28;20638;-65
2022/02/28 01:34:51;;;;;;;5.10;3.80;;;0.30;98.10;;;;;;5014644;28;20517;-67
2022/02/28 01:37:17;;;;;;;3.07;2.77;;;0.20;98.30;;;;;;5015119;28;20163;-66
2022/02/28 01:39:45;;;;;;;2.87;2.60;;;0.10;98.80;;;;;;5014907;28;20217;-64
2022/02/28 01:42:12;;;;;;;2.42;2.17;;;0.10;99.00;;;;;;5015070;28;20419;-66
2022/02/28 01:44:38;;;;;;;4.28;3.13;;;0.00;99.10;;;;;;5014458;28;20197;-66
2022/02/28 01:47:04;;;;;;;3.92;3.58;;;0.00;99.70;;;;;;5014918;28;20211;-65
2022/02/28 01:49:31;;;;;;;1.60;1.50;;;-0.10;99.90;;;;;;5014915;28;20175;-66
2022/02/28 01:51:58;;;;;;;4.07;2.75;;;0.00;99.90;;;;;;5014889;28;20519;-66
2022/02/28 01:54:24;;;;;;;2.63;2.42;;;0.10;99.90;;;;;;5014324;28;20187;-67
2022/02/28 01:56:50;;;;;;;2.70;2.50;;;0.10;99.90;;;;;;5014797;28;20166;-66
2022/02/28 01:59:15;;;;;;;4.13;3.77;;;0.10;99.90;;;;;;5014679;28;20937;-64
2022/02/28 02:01:41;;;;;;;4.60;2.60;;;0.10;99.90;;;;;;5014443;28;20169;-64
2022/02/28 02:04:07;;;;;;;2.77;2.57;;;0.00;99.90;;;;;;5014037;28;20629;-63
2022/02/28 02:06:34;;;;;;;5.33;3.40;;;-0.10;99.90;;;;;;5013392;28;20655;-67
2022/02/28 02:09:02;;;;;;;2.88;2.67;;;-0.10;99.90;;;;;;5014327;28;20176;-67
2022/02/28 02:11:27;;;;;;;4.82;2.70;;;-0.10;99.90;;;;;;5014385;28;20182;-63
2022/02/28 02:13:54;;;;;;;3.00;2.80;;;-0.20;99.90;;;;;;5014321;28;20174;-66
2022/02/28 02:16:19;;;;;;;3.53;2.95;;;-0.20;99.90;;;;;;5014452;28;20209;-65
2022/02/28 02:18:45;;;;;;;4.03;3.67;;;-0.20;99.90;;;;;;5014212;28;20197;-65
2022/02/28 02:21:12;;;;;;;2.53;2.33;;;-0.20;99.90;;;;;;5014070;28;20178;-66
2022/02/28 02:23:38;;;;;;;3.13;3.00;;;-0.20;99.90;;;;;;5012656;28;20213;-64
2022/02/28 02:26:04;;;;;;;2.78;2.28;;;-0.20;99.90;;;;;;5012840;28;20240;-65
2022/02/28 02:28:30;;;;;;;3.13;2.93;;;-0.20;99.90;;;;;;5014214;28;20198;-65
2022/02/28 02:30:56;;;;;;;2.83;2.65;;;-0.30;99.90;;;;;;5013810;28;20175;-65
2022/02/28 02:33:23;;;;;;;3.28;2.53;;;-0.40;99.90;;;;;;5013764;28;20180;-65
2022/02/28 02:35:54;;;;;;;4.60;2.90;;;-0.40;99.90;;;;;;5013756;28;20277;-64
2022/02/28 02:38:20;;;;;;;2.05;1.90;;;-0.40;99.90;;;;;;5013784;28;20252;-63
2022/02/28 02:40:46;;;;;;;3.45;3.15;;;-0.40;99.90;;;;;;5014072;28;20172;-63
2022/02/28 02:43:12;;;;;;;4.70;3.35;;;-0.40;99.90;;;;;;5014160;28;20232;-65
2022/02/28 02:45:38;;;;;;;2.17;2.03;;;-0.50;99.90;;;;;;5028898;28;20195;-65
2022/02/28 02:48:24;;;;;;;5.40;2.10;;;-0.50;99.90;;;;;;5013949;28;20461;-65
2022/02/28 02:50:51;;;;;;;2.70;2.40;;;-0.50;99.90;;;;;;5013842;28;20401;-65
2022/02/28 02:53:17;;;;;;;8.60;2.97;;;-0.50;99.90;;;;;;5012414;28;20178;-66
2022/02/28 02:55:44;;;;;;;2.80;2.60;;;-0.50;99.90;;;;;;5013713;28;20193;-66
2022/02/28 02:58:13;;;;;;;11.02;3.17;;;-0.50;99.90;;;;;;5013809;28;20660;-65
2022/02/28 03:00:42;;;;;;;1.95;1.85;;;-0.50;99.90;;;;;;5013813;28;20172;-67
2022/02/28 03:03:14;;;;;;;2.70;2.45;;;-0.50;99.90;;;;;;5013827;28;20175;-68
2022/02/28 03:05:39;;;;;;;3.65;2.40;;;-0.50;99.90;;;;;;5013429;28;20241;-65
2022/02/28 03:08:05;;;;;;;2.77;2.60;;;-0.50;99.90;;;;;;5013685;28;20627;-64
2022/02/28 03:10:32;;;;;;;2.70;2.50;;;-0.50;99.90;;;;;;5013707;28;20629;-66
2022/02/28 03:12:57;;;;;;;2.40;2.20;;;-0.60;99.90;;;;;;5012509;28;20576;-65
2022/02/28 03:15:23;;;;;;;2.73;2.50;;;-0.60;99.90;;;;;;5013396;28;20709;-66
2022/02/28 03:17:49;;;;;;;5.23;3.97;;;-0.60;99.90;;;;;;5013532;28;20466;-63
2022/02/28 03:20:15;;;;;;;2.13;1.70;;;-0.60;99.90;;;;;;5013636;28;20174;-65
2022/02/28 03:22:40;;;;;;;2.73;2.57;;;-0.70;99.90;;;;;;5012390;28;20401;-65
2022/02/28 03:25:07;;;;;;;4.40;4.10;;;-0.70;99.90;;;;;;5013183;28;20269;-64
2022/02/28 03:27:33;;;;;;;5.03;2.55;;;-0.70;99.90;;;;;;5013579;28;20622;-65
2022/02/28 03:29:58;;;;;;;0.97;0.97;;;-0.70;99.90;;;;;;5012136;28;20233;-65
2022/02/28 03:32:24;;;;;;;6.33;3.57;;;-0.70;99.90;;;;;;5013664;28;20501;-63
2022/02/28 03:34:50;;;;;;;5.93;3.10;;;-0.80;99.90;;;;;;5013203;28;20195;-64
2022/02/28 03:37:16;;;;;;;3.13;2.90;;;-0.80;99.90;;;;;;5012125;28;20479;-64
2022/02/28 03:39:41;;;;;;;4.27;3.37;;;-0.80;99.90;;;;;;5012097;28;20175;-64
2022/02/28 03:42:07;;;;;;;2.90;2.80;;;-0.90;99.90;;;;;;5013171;28;20394;-63
2022/02/28 03:44:33;;;;;;;2.80;2.30;;;-0.90;99.90;;;;;;5014950;28;20274;-65
2022/02/28 03:46:59;;;;;;;2.80;2.57;;;-0.90;99.90;;;;;;5015652;28;20410;-64
2022/02/28 03:49:24;;;;;;;2.10;1.90;;;-0.90;99.90;;;;;;5017007;28;20175;-64
2022/02/28 03:51:50;;;;;;;2.10;1.70;;;-1.00;99.90;;;;;;5016933;28;20174;-65
2022/02/28 03:54:16;;;;;;;4.70;3.63;;;-1.00;99.90;;;;;;5016498;28;20195;-64
2022/02/28 03:56:43;;;;;;;3.40;3.20;;;-1.00;99.90;;;;;;5016966;28;20564;-64
2022/02/28 03:59:10;;;;;;;1.63;1.58;;;-1.10;99.90;;;;;;5016807;28;20195;-64
2022/02/28 04:01:35;;;;;;;2.25;2.17;;;-1.20;99.90;;;;;;5016862;28;20178;-65
2022/02/28 04:04:02;;;;;;;2.00;1.90;;;-1.20;99.90;;;;;;5016103;28;20649;-64
2022/02/28 04:06:29;;;;;;;2.30;1.85;;;-1.20;99.90;;;;;;5017117;28;20172;-64
2022/02/28 04:08:56;;;;;;;2.25;2.15;;;-1.20;99.90;;;;;;5016685;28;20181;-64
2022/02/28 04:11:23;;;;;;;6.95;3.20;;;-1.20;99.90;;;;;;5016754;28;20202;-64
2022/02/28 04:13:48;;;;;;;4.30;1.93;;;-1.20;99.90;;;;;;5016171;28;20633;-65
2022/02/28 04:16:14;;;;;;;1.80;1.70;;;-1.20;99.90;;;;;;5016720;28;20182;-64
2022/02/28 04:18:40;;;;;;;2.03;1.93;;;-1.30;99.90;;;;;;5016431;28;20257;-65
2022/02/28 04:21:05;;;;;;;2.87;2.50;;;-1.30;99.90;;;;;;5015245;28;20168;-65
2022/02/28 04:23:31;;;;;;;4.10;3.23;;;-1.30;99.90;;;;;;5016097;28;20205;-64
2022/02/28 04:25:58;;;;;;;3.67;3.37;;;-1.30;99.90;;;;;;5016667;28;20273;-65
2022/02/28 04:28:24;;;;;;;2.75;2.65;;;-1.40;99.90;;;;;;5018763;28;20261;-64
2022/02/28 04:30:49;;;;;;;3.57;2.97;;;-1.30;99.90;;;;;;5019702;28;20191;-65
2022/02/28 04:33:15;;;;;;;4.20;2.30;;;-1.30;99.90;;;;;;5017895;28;20168;-65
2022/02/28 04:35:41;;;;;;;7.53;4.23;;;-1.30;99.90;;;;;;5019312;28;20194;-65
2022/02/28 04:38:06;;;;;;;3.07;2.80;;;-1.30;99.90;;;;;;5019487;28;20197;-63
2022/02/28 04:40:33;;;;;;;4.90;4.00;;;-1.30;99.90;;;;;;5022621;28;20171;-63
2022/02/28 04:42:59;;;;;;;2.92;2.83;;;-1.30;99.90;;;;;;5019694;28;20159;-64
2022/02/28 04:45:25;;;;;;;3.30;2.50;;;-1.20;99.90;;;;;;5020064;28;20217;-64
2022/02/28 04:47:50;;;;;;;8.50;3.63;;;-1.20;99.90;;;;;;5022914;28;20225;-64
2022/02/28 04:50:16;;;;;;;4.17;3.70;;;-1.20;99.90;;;;;;5019243;28;20405;-63
2022/02/28 04:52:42;;;;;;;3.73;3.20;;;-1.20;99.90;;;;;;5020510;28;20267;-62
2022/02/28 04:55:08;;;;;;;6.30;3.33;;;-1.20;99.90;;;;;;5017543;28;20868;-63
2022/02/28 04:57:41;;;;;;;3.70;3.27;;;-1.20;99.90;;;;;;5015883;28;20198;-64
2022/02/28 05:00:08;;;;;;;4.22;3.35;;;-1.20;99.90;;;;;;5015833;28;20452;-64
2022/02/28 05:02:35;;;;;;;3.65;3.40;;;-1.20;99.90;;;;;;5015661;28;20207;-64
2022/02/28 05:05:03;;;;;;;2.88;2.67;;;-1.10;99.90;;;;;;5015235;28;20206;-64
2022/02/28 05:07:29;;;;;;;2.30;2.17;;;-1.10;99.90;;;;;;5015615;28;20207;-64
2022/02/28 05:09:55;;;;;;;3.33;3.13;;;-1.10;99.90;;;;;;5014081;28;20180;-63
2022/02/28 05:12:21;;;;;;;3.50;3.30;;;-1.10;99.90;;;;;;5015398;28;20178;-63
2022/02/28 05:14:46;;;;;;;1.83;1.73;;;-1.20;99.90;;;;;;5015032;28;20195;-63
2022/02/28 05:17:12;;;;;;;6.53;2.40;;;-1.20;99.90;;;;;;5015116;28;20289;-62
2022/02/28 05:19:38;;;;;;;3.10;2.90;;;-1.30;99.90;;;;;;5015504;28;20661;-62
2022/02/28 05:22:04;;;;;;;2.87;2.73;;;-1.30;99.90;;;;;;5015509;28;20410;-65
2022/02/28 05:24:32;;;;;;;1.40;1.40;;;-1.30;99.90;;;;;;5029793;28;20195;-64
2022/02/28 05:26:58;;;;;;;2.03;1.92;;;-1.30;99.90;;;;;;5013848;28;20195;-63
2022/02/28 05:29:24;;;;;;;3.30;3.00;;;-1.40;99.90;;;;;;5015069;28;20669;-63
2022/02/28 05:31:50;;;;;;;5.65;2.70;;;-1.40;99.90;;;;;;5015062;28;20172;-64
2022/02/28 05:34:16;;;;;;;1.80;1.70;;;-1.50;99.90;;;;;;5014483;28;20198;-64
2022/02/28 05:36:41;;;;;;;2.83;2.10;;;-1.50;99.90;;;;;;5014764;28;20410;-63
2022/02/28 05:39:07;;;;;;;4.03;3.43;;;-1.50;99.90;;;;;;5013461;28;20198;-64
2022/02/28 05:41:32;;;;;;;2.37;2.27;;;-1.60;99.90;;;;;;5014968;28;20167;-63
2022/02/28 05:43:58;;;;;;;4.57;3.60;;;-1.60;99.90;;;;;;5014673;28;20167;-63
2022/02/28 05:46:24;;;;;;;3.77;3.57;;;-1.60;99.90;;;;;;5014789;28;20250;-64
2022/02/28 05:48:50;;;;;;;3.67;3.30;;;-1.70;99.90;;;;;;5014781;28;20548;-63
2022/02/28 05:51:15;;;;;;;1.67;1.57;;;-1.80;99.90;;;;;;5013396;28;20502;-64
2022/02/28 05:53:41;;;;;;;1.67;1.60;;;-1.80;99.90;;;;;;5014514;28;20410;-63
2022/02/28 05:56:07;;;;;;;2.70;2.60;;;-1.90;99.90;;;;;;5013587;28;20203;-65
2022/02/28 05:58:33;;;;;;;10.50;1.90;;;-1.90;99.90;;;;;;5014421;28;20816;-64
2022/02/28 06:00:58;;;;;;;1.87;1.77;;;-1.90;99.90;;;;;;5014512;28;20167;-64
2022/02/28 06:05:50;;;;;;;4.45;4.05;;;-1.80;99.90;;;;;;5089717;22;20589;-64
2022/02/28 06:08:16;;;;;;;2.40;2.20;;;-1.70;99.90;;;;;;5089558;28;20175;-64
2022/02/28 06:10:42;;;;;;;2.40;1.20;;;-1.60;99.90;;;;;;5094264;28;20666;-64
2022/02/28 06:13:07;;;;;;;2.17;2.08;;;-1.50;99.90;;;;;;5093983;28;20168;-63
2022/02/28 06:15:33;;;;;;;2.50;2.30;;;-1.50;99.90;;;;;;5093994;28;20191;-63
2022/02/28 06:18:03;;;;;;;1.33;1.33;;;-1.40;99.90;;;;;;5094056;28;20547;-63
2022/02/28 06:20:29;;;;;;;2.05;1.95;;;-1.40;99.90;;;;;;5092223;28;20187;-64
2022/02/28 06:22:54;;;;;;;2.78;2.45;;;-1.40;99.90;;;;;;5092399;28;20169;-67
2022/02/28 06:25:20;;;;;;;3.10;2.90;;;-1.40;99.90;;;;;;5073811;28;20241;-64
2022/02/28 06:27:46;;;;;;;6.20;4.10;;;-1.40;99.90;;;;;;5073706;28;20179;-64
2022/02/28 06:30:12;;;;;;;4.30;3.63;;;-1.40;99.90;;;;;;5073800;28;20449;-65
2022/02/28 06:32:37;;;;;;;3.90;3.60;;;-1.20;99.90;;;;;;5073455;28;20173;-65
2022/02/28 06:35:05;;;;;;;3.30;2.90;;;-1.00;99.90;;;;;;5073133;28;20470;-63
2022/02/28 06:37:31;;;;;;;2.65;2.47;;;-0.80;99.90;;;;;;5073371;28;20604;-62
2022/02/28 06:39:56;;;;;;;2.77;2.63;;;-0.50;99.90;;;;;;5072126;28;20307;-65
2022/02/28 06:42:22;;;;;;;6.27;4.77;;;-0.20;99.90;;;;;;5073788;28;20160;-64
2022/02/28 06:44:48;;;;;;;5.50;3.70;;;0.00;99.90;;;;;;5073116;28;20263;-64
2022/02/28 06:47:13;;;;;;;5.30;3.63;;;0.20;99.90;;;;;;5073584;28;20179;-65
2022/02/28 06:49:39;;;;;;;4.87;4.10;;;0.40;99.90;;;;;;5073486;28;20176;-63
2022/02/28 06:52:05;;;;;;;6.60;5.03;;;0.50;99.90;;;;;;5073279;28;20172;-62
2022/02/28 06:54:30;;;;;;;6.63;5.97;;;0.80;99.90;;;;;;5070533;28;20188;-66
2022/02/28 06:56:56;;;;;;;2.77;2.60;;;1.10;99.90;;;;;;5072528;28;20184;-64
2022/02/28 06:59:22;;;;;;;4.73;3.63;;;1.50;99.90;;;;;;5072602;28;20200;-67
2022/02/28 07:01:47;;;;;;;5.43;4.77;;;1.90;99.90;;;;;;5071158;28;20176;-66
2022/02/28 07:04:13;;;;;;;7.30;5.33;;;2.30;99.90;;;;;;5070647;28;20188;-66
2022/02/28 07:06:39;;;;;;;6.70;5.10;;;2.60;99.90;;;;;;5071229;28;20229;-65
2022/02/28 07:09:07;;;;;;;6.82;4.88;;;3.00;99.90;;;;;;5069877;28;20535;-67
2022/02/28 07:11:34;;;;;;;4.75;4.32;;;3.50;99.90;;;;;;5069815;28;20179;-68
2022/02/28 07:14:00;;;;;;;6.22;5.43;;;4.00;99.90;;;;;;5069485;28;20255;-67
2022/02/28 07:16:26;;;;;;;7.80;4.67;;;4.60;98.50;;;;;;5072531;28;20214;-66
2022/02/28 07:18:51;;;;;;;4.40;4.10;;;5.30;97.70;;;;;;5076862;28;20450;-68
2022/02/28 07:21:18;;;;;;;5.27;4.40;;;5.90;96.90;;;;;;5075770;28;20165;-66
2022/02/28 07:23:44;;;;;;;5.28;4.78;;;6.50;95.40;;;;;;5076514;28;20160;-69
2022/02/28 07:26:10;;;;;;;6.23;4.93;;;6.90;94.00;;;;;;5076906;28;20245;-73
2022/02/28 07:28:35;;;;;;;9.43;5.80;;;7.20;93.00;;;;;;5076963;28;20541;-67
2022/02/28 07:31:01;;;;;;;5.10;4.60;;;7.20;91.70;;;;;;5076943;28;20173;-68
2022/02/28 07:33:27;;;;;;;6.83;4.60;;;7.30;91.70;;;;;;5076399;28;20169;-69
2022/02/28 07:35:52;;;;;;;4.50;4.10;;;7.40;91.60;;;;;;5076669;28;20189;-67
2022/02/28 07:38:18;;;;;;;9.83;5.80;;;7.70;91.50;;;;;;5076807;28;20203;-68
2022/02/28 07:40:44;;;;;;;7.07;5.20;;;8.30;90.20;;;;;;5076911;28;20172;-69
2022/02/28 07:43:10;;;;;;;6.47;5.60;;;8.90;89.00;;;;;;5075293;28;20168;-68
2022/02/28 07:45:35;;;;;;;9.10;5.40;;;9.30;88.00;;;;;;5076195;28;20688;-70
2022/02/28 07:48:01;;;;;;;7.10;6.40;;;9.60;84.60;;;;;;5076572;28;20172;-66
2022/02/28 07:50:27;;;;;;;9.63;5.40;;;9.90;84.10;;;;;;5076552;28;20614;-70
2022/02/28 07:52:52;;;;;;;7.77;6.03;;;10.10;80.90;;;;;;5075255;28;20404;-71
2022/02/28 07:55:18;;;;;;;9.00;6.40;;;10.40;80.90;;;;;;5076005;28;20190;-72
2022/02/28 07:57:44;;;;;;;8.27;5.47;;;10.50;79.40;;;;;;5076306;28;20204;-71
2022/02/28 08:00:10;;;;;;;6.50;5.73;;;10.20;78.30;;;;;;5074735;28;20181;-71
2022/02/28 08:02:36;;;;;;;5.13;4.70;;;10.30;79.60;;;;;;5075962;28;20176;-70
2022/02/28 08:05:02;;;;;;;7.37;5.90;;;10.80;77.60;;;;;;5075450;28;20827;-71
2022/02/28 08:07:27;;;;;;;6.70;5.47;;;11.10;76.70;;;;;;5075714;28;20171;-71
2022/02/28 08:09:53;;;;;;;5.83;5.33;;;11.60;74.70;;;;;;5075652;28;20496;-71
2022/02/28 08:12:19;;;;;;;6.13;5.50;;;12.10;74.20;;;;;;5074270;28;20531;-70
2022/02/28 08:14:44;;;;;;;8.13;5.80;;;12.40;73.50;;;;;;5073836;28;20196;-70
2022/02/28 08:17:10;;;;;;;7.30;6.30;;;12.70;72.40;;;;;;5074597;28;20208;-69
2022/02/28 08:19:36;;;;;;;6.63;6.00;;;12.90;70.80;;;;;;5075424;28;20329;-70
2022/02/28 08:22:02;;;;;;;6.43;5.70;;;13.10;68.80;;;;;;5075387;28;20165;-70
2022/02/28 08:24:28;;;;;;;6.40;5.33;;;13.30;68.20;;;;;;5073633;28;20419;-70
2022/02/28 08:26:54;;;;;;;7.40;6.60;;;13.30;68.40;;;;;;5074198;28;20403;-70
2022/02/28 08:29:19;;;;;;;6.23;5.63;;;13.80;68.10;;;;;;5074538;28;20509;-70
2022/02/28 08:31:45;;;;;;;6.60;6.00;;;14.30;65.60;;;;;;5074715;28;20178;-70
2022/02/28 08:34:11;;;;;;;6.20;5.60;;;14.60;65.70;;;;;;5073250;28;20196;-70
2022/02/28 08:36:37;;;;;;;7.47;6.77;;;15.10;64.80;;;;;;5071934;28;20928;-69
2022/02/28 08:39:04;;;;;;;8.37;6.13;;;15.70;61.40;;;;;;5073146;28;20202;-71
2022/02/28 08:41:29;;;;;;;8.77;5.37;;;16.00;60.70;;;;;;5073258;28;20165;-69
2022/02/28 08:43:55;;;;;;;9.00;6.40;;;16.10;59.80;;;;;;5073401;28;20913;-72
2022/02/28 08:46:21;;;;;;;5.03;4.60;;;16.40;58.40;;;;;;5073208;28;20169;-70
2022/02/28 08:48:46;;;;;;;6.10;5.50;;;16.70;58.20;;;;;;5073181;28;20176;-72
2022/02/28 08:51:12;;;;;;;6.07;5.53;;;16.80;58.10;;;;;;5072998;28;20207;-71
2022/02/28 08:53:37;;;;;;;5.67;5.10;;;17.00;57.10;;;;;;5073333;28;20171;-70
2022/02/28 08:56:03;;;;;;;6.77;4.67;;;17.30;56.80;;;;;;5075102;28;20285;-70
2022/02/28 08:58:29;;;;;;;7.23;6.17;;;17.30;56.50;;;;;;5075063;28;20253;-70
2022/02/28 09:00:55;;;;;;;7.40;5.73;;;17.60;56.40;;;;;;5075310;28;20401;-71
2022/02/28 09:03:20;;;;;;;5.93;5.37;;;17.80;55.90;;;;;;5073284;28;20169;-70
2022/02/28 09:05:46;;;;;;;6.30;5.70;;;17.90;55.20;;;;;;5074590;28;20664;-70
2022/02/28 09:08:12;;;;;;;6.17;5.23;;;17.80;54.50;;;;;;5074760;28;20492;-70
2022/02/28 09:10:37;;;;;;;6.23;5.00;;;18.00;54.70;;;;;;5074902;28;20262;-69
2022/02/28 09:13:03;;;;;;;7.33;5.97;;;18.10;54.40;;;;;;5074752;28;20190;-71
2022/02/28 09:15:29;;;;;;;5.73;4.67;;;18.20;53.60;;;;;;5074572;28;20726;-70
2022/02/28 09:17:56;;;;;;;7.70;5.10;;;18.60;54.00;;;;;;5074477;28;20231;-71
2022/02/28 09:20:21;;;;;;;6.50;5.60;;;18.40;53.30;;;;;;5074505;28;20403;-70
2022/02/28 09:22:47;;;;;;;6.43;5.67;;;18.50;53.80;;;;;;5074032;28;20427;-71
2022/02/28 09:25:13;;;;;;;7.37;5.43;;;18.60;53.10;;;;;;5074439;28;20229;-71
2022/02/28 09:27:40;;;;;;;7.97;6.20;;;18.40;52.10;;;;;;5074386;28;20457;-70
2022/02/28 09:30:07;;;;;;;8.60;6.53;;;18.50;51.70;;;;;;5074537;28;20251;-70
2022/02/28 09:32:33;;;;;;;6.30;5.17;;;18.60;51.30;;;;;;5074446;28;20413;-69
2022/02/28 09:34:58;;;;;;;6.37;5.70;;;18.80;51.00;;;;;;5073923;28;20416;-69
2022/02/28 09:37:24;;;;;;;6.00;5.40;;;18.70;50.20;;;;;;5073976;28;20647;-70
2022/02/28 09:39:50;;;;;;;7.20;5.50;;;18.60;50.50;;;;;;5073972;28;20168;-70
2022/02/28 09:42:16;;;;;;;4.90;4.47;;;18.70;50.60;;;;;;5073662;28;20177;-70
2022/02/28 09:44:44;;;;;;;5.97;5.40;;;18.50;50.60;;;;;;5073660;28;20233;-70
2022/02/28 09:47:11;;;;;;;6.13;4.83;;;18.40;50.00;;;;;;5073921;28;20378;-71
2022/02/28 09:49:37;;;;;;;5.87;5.27;;;18.20;50.00;;;;;;5074074;28;20405;-70
2022/02/28 09:52:03;;;;;;;6.47;5.63;;;18.10;50.30;;;;;;5073868;28;20378;-69
2022/02/28 09:54:29;;;;;;;7.00;5.40;;;18.10;50.60;;;;;;5073674;28;20271;-70
2022/02/28 09:56:55;;;;;;;6.63;5.27;;;18.20;50.30;;;;;;5073757;28;20515;-71
2022/02/28 09:59:21;;;;;;;10.13;5.80;;;18.40;50.30;;;;;;5073572;28;20209;-72
2022/02/28 10:01:47;;;;;;;6.13;5.47;;;18.50;50.20;;;;;;5073678;28;20886;-70
2022/02/28 10:04:16;;;;;;;6.60;5.43;;;18.60;50.00;;;;;;5073186;28;20185;-71
2022/02/28 10:06:43;;;;;;;5.17;4.67;;;18.50;50.00;;;;;;5073756;28;20403;-70
2022/02/28 10:09:09;;;;;;;7.00;5.57;;;18.70;50.00;;;;;;5073765;28;20433;-72
2022/02/28 10:11:42;;;;;;;6.23;5.63;;;18.90;50.00;;;;;;5073407;28;20386;-71
2022/02/28 10:14:11;;;;;;;7.60;6.07;;;18.90;49.50;;;;;;5073768;28;20458;-69
2022/02/28 10:16:44;;;;;;;7.57;6.30;;;18.60;49.10;;;;;;5073752;28;20425;-69
2022/02/28 10:19:28;;;;;;;5.00;4.60;;;18.00;49.20;;;;;;5072318;28;20838;-71
2022/02/28 10:22:01;;;;;;;6.30;5.40;;;17.40;49.50;;;;;;5073555;28;20467;-70
2022/02/28 10:24:26;;;;;;;5.83;4.60;;;17.00;49.90;;;;;;5073450;28;20409;-69
2022/02/28 10:26:57;;;;;;;4.83;4.33;;;16.80;50.30;;;;;;5073634;28;20792;-69
2022/02/28 10:29:34;;;;;;;5.83;5.33;;;16.30;50.50;;;;;;5073855;28;20165;-70
2022/02/28 10:32:05;;;;;;;4.93;4.20;;;15.90;51.10;;;;;;5073680;28;20406;-71
2022/02/28 10:34:34;;;;;;;5.70;5.20;;;15.70;51.10;;;;;;5073184;28;20449;-70
2022/02/28 10:37:00;;;;;;;5.37;4.33;;;15.40;51.00;;;;;;5072146;28;20760;-69
2022/02/28 10:39:34;;;;;;;6.10;5.50;;;15.30;51.50;;;;;;5073340;28;20442;-70
2022/02/28 10:42:14;;;;;;;4.90;4.37;;;15.10;51.00;;;;;;5072240;28;20168;-70
2022/02/28 10:44:41;;;;;;;7.73;5.23;;;14.90;51.10;;;;;;5073134;28;20423;-69
2022/02/28 10:47:09;;;;;;;4.53;4.00;;;14.60;51.00;;;;;;5073628;28;20799;-69
2022/02/28 10:49:35;;;;;;;5.20;4.70;;;14.50;51.40;;;;;;5073487;28;20409;-71
2022/02/28 10:52:12;;;;;;;5.70;4.83;;;14.40;51.70;;;;;;5073167;28;20418;-70
2022/02/28 10:54:45;;;;;;;6.23;5.23;;;14.30;51.00;;;;;;5071560;28;20908;-70
2022/02/28 10:57:21;;;;;;;6.37;5.77;;;14.20;51.30;;;;;;5073301;28;20757;-71
2022/02/28 10:59:52;;;;;;;7.67;5.37;;;14.20;51.20;;;;;;5073523;28;20401;-70
2022/02/28 11:02:29;;;;;;;4.10;3.60;;;14.20;51.20;;;;;;5073323;28;20401;-69
2022/02/28 11:05:15;;;;;;;6.27;5.50;;;14.10;51.70;;;;;;5071533;28;20451;-67
2022/02/28 11:07:48;;;;;;;7.73;4.80;;;13.90;51.80;;;;;;5071899;28;20706;-69
2022/02/28 11:10:16;;;;;;;7.50;4.93;;;13.70;52.00;;;;;;5073611;28;20769;-70
2022/02/28 11:12:42;;;;;;;5.00;4.50;;;13.50;52.00;;;;;;5073136;28;20726;-68
2022/02/28 11:15:16;;;;;;;5.00;4.60;;;13.30;52.50;;;;;;5072700;28;20441;-69
2022/02/28 11:17:51;;;;;;;7.83;4.70;;;13.10;52.60;;;;;;5073172;28;20410;-71
2022/02/28 11:20:20;;;;;;;7.20;5.47;;;13.00;52.50;;;;;;5073163;28;20889;-71
2022/02/28 11:22:48;;;;;;;11.33;5.60;;;12.80;52.80;;;;;;5072845;28;20403;-71
2022/02/28 11:25:16;;;;;;;6.63;5.30;;;12.70;53.00;;;;;;5072587;28;20423;-70
2022/02/28 11:27:44;;;;;;;6.93;4.57;;;12.50;53.60;;;;;;5072770;28;20500;-68
2022/02/28 11:30:17;;;;;;;5.57;4.80;;;12.10;53.60;;;;;;5072905;28;20788;-68
2022/02/28 11:32:43;;;;;;;6.57;4.87;;;11.60;54.20;;;;;;5073647;28;20446;-69
2022/02/28 11:35:43;;;;;;;7.10;5.93;;;11.00;55.00;;;;;;5078205;28;20914;-70
2022/02/28 11:38:17;;;;;;;6.97;5.43;;;10.60;55.70;;;;;;5076877;28;20450;-70
2022/02/28 11:41:04;;;;;;;6.60;3.90;;;10.00;56.40;;;;;;5076568;28;20164;-70
2022/02/28 11:43:31;;;;;;;3.50;3.20;;;9.70;57.90;;;;;;5073236;28;20169;-69
2022/02/28 11:45:59;;;;;;;7.93;4.35;;;9.50;58.30;;;;;;5072707;28;20248;-70
2022/02/28 11:48:37;;;;;;;5.03;4.25;;;9.40;58.80;;;;;;5075197;28;20188;-69
2022/02/28 11:51:34;;;;;;;5.30;3.60;;;9.30;59.10;;;;;;5073834;28;20203;-67
2022/02/28 11:54:22;;;;;;;11.52;4.65;;;9.20;59.00;;;;;;5056441;28;20223;-70
2022/02/28 11:56:49;;;;;;;5.50;4.13;;;9.10;59.20;;;;;;5072579;28;20169;-69
2022/02/28 11:59:20;;;;;;;5.00;4.60;;;9.10;59.60;;;;;;5073155;28;20247;-69
2022/02/28 12:01:50;;;;;;;4.18;3.78;;;9.10;61.80;;;;;;5073026;28;20165;-70
2022/02/28 12:04:21;;;;;;;4.32;3.92;;;9.30;59.70;;;;;;5073292;28;20224;-71
2022/02/28 12:06:50;;;;;;;3.58;3.17;;;9.40;59.30;;;;;;5076056;28;20172;-71
2022/02/28 12:12:27;;;;;;;5.13;4.05;;;9.30;58.90;;;;;;5075952;28;20181;-71
2022/02/28 12:14:56;;;;;;;7.10;4.07;;;9.40;58.50;;;;;;5075745;28;20654;-70
2022/02/28 12:17:47;;;;;;;7.00;4.80;;;9.40;58.30;;;;;;5076083;28;20180;-68
2022/02/28 12:20:29;;;;;;;7.68;5.22;;;9.30;58.20;;;;;;5075699;28;20202;-68
2022/02/28 12:23:05;;;;;;;4.95;3.95;;;9.20;58.40;;;;;;5075554;28;20179;-68
2022/02/28 12:25:33;;;;;;;5.40;3.88;;;9.20;58.50;;;;;;5075520;28;20177;-69
2022/02/28 12:28:37;;;;;;;4.95;4.20;;;9.20;58.50;;;;;;5075761;28;20198;-69
2022/02/28 12:31:06;;;;;;;4.50;3.45;;;9.10;58.80;;;;;;5073307;28;20260;-69
2022/02/28 12:33:35;;;;;;;5.15;4.03;;;9.10;59.20;;;;;;5073708;28;20188;-70
2022/02/28 12:36:07;;;;;;;5.28;4.10;;;9.20;58.90;;;;;;5075487;28;20184;-71
2022/02/28 12:38:35;;;;;;;4.70;4.25;;;9.30;58.60;;;;;;5075613;28;20192;-69
2022/02/28 12:41:06;;;;;;;3.72;3.42;;;9.30;58.40;;;;;;5074127;28;20570;-70
2022/02/28 12:43:33;;;;;;;7.78;3.85;;;9.40;57.70;;;;;;5075372;28;20177;-69
2022/02/28 12:46:02;;;;;;;4.43;3.35;;;9.40;57.50;;;;;;5075670;28;20204;-68
2022/02/28 12:48:29;;;;;;;4.25;3.60;;;9.40;56.80;;;;;;5075609;28;20173;-68
2022/02/28 12:50:59;;;;;;;3.97;2.95;;;9.40;57.50;;;;;;5075533;28;20176;-69
2022/02/28 12:53:27;;;;;;;3.78;3.17;;;9.40;57.30;;;;;;5075499;28;20164;-71
2022/02/28 12:55:59;;;;;;;13.13;4.55;;;9.30;57.50;;;;;;5075548;28;20185;-67